Time;durP1;ratioP1;P1;durP2;ratioP2;P2;SDS_P1;SDS_P2;PMS_P1;PMS_P2;Temp;Humidity;BMP_temperature;BMP_pressure;BME280_temperature;BME280_humidity;BME280_pressure;Samples;Min_cycle;Max_cycle;Signal;HPM_P1;HPM_P2
2022/12/31 00:01:32;;;;;;;15.07;1.63;;;11.60;99.90;;;;;;5035981;28;20345;-64
2022/12/31 00:03:58;;;;;;;11.05;1.55;;;11.70;99.90;;;;;;5035314;28;20052;-63
2022/12/31 00:06:25;;;;;;;9.93;1.63;;;11.80;99.90;;;;;;5000913;28;20575;-63
2022/12/31 00:08:53;;;;;;;13.68;2.00;;;11.70;99.90;;;;;;5001442;28;20029;-63
2022/12/31 00:11:20;;;;;;;13.13;1.83;;;11.70;99.90;;;;;;5001998;28;20045;-65
2022/12/31 00:13:46;;;;;;;10.60;1.70;;;11.70;99.90;;;;;;5018099;28;20041;-66
2022/12/31 00:16:15;;;;;;;11.30;1.67;;;11.80;99.90;;;;;;5035711;28;20040;-66
2022/12/31 00:18:45;;;;;;;16.63;2.20;;;11.70;99.90;;;;;;5033457;28;20049;-66
2022/12/31 00:21:13;;;;;;;12.98;2.13;;;11.80;99.90;;;;;;5000504;28;20040;-65
2022/12/31 00:23:38;;;;;;;9.27;1.45;;;11.80;99.90;;;;;;5018445;28;20066;-66
2022/12/31 00:26:18;;;;;;;11.50;1.60;;;11.70;99.90;;;;;;5001045;28;20044;-65
2022/12/31 00:28:44;;;;;;;10.60;1.70;;;11.90;99.90;;;;;;5002085;28;20111;-66
2022/12/31 00:31:22;;;;;;;9.77;1.90;;;11.80;99.90;;;;;;5017659;28;20041;-65
2022/12/31 00:33:48;;;;;;;11.27;1.20;;;12.00;99.90;;;;;;5035977;28;20057;-65
2022/12/31 00:36:17;;;;;;;13.07;1.80;;;12.00;99.90;;;;;;5017353;28;20040;-64
2022/12/31 00:38:45;;;;;;;8.90;1.50;;;12.00;99.90;;;;;;5036040;28;20478;-65
2022/12/31 00:41:11;;;;;;;13.70;1.83;;;11.90;99.90;;;;;;5017668;28;20056;-65
2022/12/31 00:43:37;;;;;;;12.55;1.80;;;11.90;99.90;;;;;;5018379;28;20058;-65
2022/12/31 00:46:04;;;;;;;11.43;1.75;;;11.90;99.90;;;;;;5002159;28;20213;-66
2022/12/31 00:48:30;;;;;;;8.05;1.40;;;11.80;99.90;;;;;;5002889;28;20037;-66
2022/12/31 00:50:56;;;;;;;13.02;1.80;;;12.00;99.90;;;;;;5018353;28;20063;-63
2022/12/31 00:53:22;;;;;;;12.65;2.25;;;12.00;99.90;;;;;;5018219;28;20817;-63
2022/12/31 00:55:49;;;;;;;10.77;1.45;;;11.80;99.90;;;;;;5034465;28;20697;-63
2022/12/31 00:58:14;;;;;;;10.00;1.80;;;12.00;99.90;;;;;;5000689;28;20049;-64
2022/12/31 01:00:41;;;;;;;11.40;1.77;;;12.00;99.90;;;;;;5016913;28;20037;-63
2022/12/31 01:03:10;;;;;;;12.25;2.10;;;12.00;99.90;;;;;;5017751;28;20057;-63
2022/12/31 01:05:36;;;;;;;13.68;1.88;;;12.00;99.90;;;;;;5015730;28;20495;-64
2022/12/31 01:08:02;;;;;;;14.68;2.15;;;12.00;99.90;;;;;;5035221;28;20630;-65
2022/12/31 01:13:13;;;;;;;13.25;2.38;;;11.90;99.90;;;;;;5017494;28;20132;-64
2022/12/31 01:15:39;;;;;;;16.70;2.55;;;11.90;99.90;;;;;;5035552;28;20061;-63
2022/12/31 01:18:07;;;;;;;14.90;2.33;;;12.00;99.90;;;;;;5017506;28;20361;-64
2022/12/31 01:20:38;;;;;;;19.52;2.58;;;11.90;99.90;;;;;;5034941;28;20045;-64
2022/12/31 01:23:04;;;;;;;13.05;2.05;;;11.80;99.90;;;;;;5035431;28;20041;-64
2022/12/31 01:25:30;;;;;;;17.10;2.20;;;11.80;99.90;;;;;;5001271;28;20053;-64
2022/12/31 01:27:55;;;;;;;15.73;1.90;;;11.90;99.90;;;;;;5034864;28;20424;-64
2022/12/31 01:30:21;;;;;;;17.20;2.70;;;12.00;99.90;;;;;;5001811;28;20686;-63
2022/12/31 01:32:47;;;;;;;18.08;2.40;;;11.90;99.90;;;;;;5038017;28;20357;-64
2022/12/31 01:35:12;;;;;;;16.38;2.85;;;11.80;99.90;;;;;;5020586;28;20520;-64
2022/12/31 01:37:38;;;;;;;19.13;2.50;;;11.80;99.90;;;;;;5020222;28;20087;-64
2022/12/31 01:40:05;;;;;;;19.38;2.47;;;11.90;99.90;;;;;;5038284;28;20083;-64
2022/12/31 01:42:30;;;;;;;16.02;2.47;;;11.80;99.90;;;;;;5020006;28;20736;-65
2022/12/31 01:44:56;;;;;;;18.15;2.35;;;11.90;99.90;;;;;;5020701;28;20041;-64
2022/12/31 01:47:36;;;;;;;15.55;2.70;;;11.90;99.90;;;;;;4995946;28;20128;-62
2022/12/31 01:50:18;;;;;;;18.83;2.85;;;11.80;99.90;;;;;;5037439;28;20071;-63
2022/12/31 01:52:48;;;;;;;18.85;2.58;;;11.90;99.90;;;;;;5039190;28;20041;-63
2022/12/31 01:55:16;;;;;;;19.33;3.35;;;11.80;99.90;;;;;;5020980;28;20099;-63
2022/12/31 01:57:48;;;;;;;16.15;2.40;;;11.70;99.90;;;;;;5037206;28;20499;-64
2022/12/31 02:00:15;;;;;;;17.83;2.88;;;11.70;99.90;;;;;;5019835;28;20453;-64
2022/12/31 02:02:40;;;;;;;20.15;2.65;;;11.80;99.90;;;;;;5020522;28;20172;-64
2022/12/31 02:05:33;;;;;;;21.20;2.80;;;11.80;99.90;;;;;;5018638;28;20637;-63
2022/12/31 02:07:59;;;;;;;19.80;2.50;;;11.70;99.90;;;;;;5020579;28;20067;-63
2022/12/31 02:10:25;;;;;;;14.60;2.60;;;11.70;99.90;;;;;;5021583;28;20052;-64
2022/12/31 02:12:51;;;;;;;14.57;2.65;;;11.70;99.90;;;;;;5037803;28;20253;-64
2022/12/31 02:15:22;;;;;;;16.58;2.85;;;11.70;99.90;;;;;;5036407;28;20044;-63
2022/12/31 02:18:04;;;;;;;21.27;3.33;;;11.50;99.90;;;;;;5019914;28;20191;-64
2022/12/31 02:20:42;;;;;;;19.35;2.80;;;11.60;99.90;;;;;;5020329;28;20045;-65
2022/12/31 02:23:30;;;;;;;20.05;2.60;;;11.50;99.90;;;;;;5020179;28;20043;-65
2022/12/31 02:26:14;;;;;;;16.38;2.28;;;11.70;99.90;;;;;;5020426;28;20051;-65
2022/12/31 02:29:04;;;;;;;13.07;2.67;;;11.50;99.90;;;;;;5037078;28;20809;-65
2022/12/31 02:31:35;;;;;;;14.70;2.38;;;11.50;99.90;;;;;;5037834;28;20616;-64
2022/12/31 02:34:26;;;;;;;14.98;2.17;;;11.70;99.90;;;;;;5036897;28;20127;-64
2022/12/31 02:36:54;;;;;;;11.23;2.10;;;11.70;99.90;;;;;;5019741;28;20095;-65
2022/12/31 02:39:20;;;;;;;14.35;2.50;;;11.70;99.90;;;;;;5019339;28;20110;-63
2022/12/31 02:41:50;;;;;;;17.65;2.72;;;11.50;99.90;;;;;;5019741;28;20037;-64
2022/12/31 02:44:30;;;;;;;14.70;2.75;;;11.70;99.90;;;;;;5020077;28;20143;-64
2022/12/31 02:47:05;;;;;;;13.65;2.78;;;11.70;99.90;;;;;;5036469;28;20453;-65
2022/12/31 02:49:51;;;;;;;11.02;2.38;;;11.40;99.90;;;;;;5018012;28;20048;-64
2022/12/31 02:52:22;;;;;;;14.15;2.72;;;11.40;99.90;;;;;;5018487;28;20044;-63
2022/12/31 02:55:09;;;;;;;13.57;2.30;;;11.60;99.90;;;;;;5037663;28;20780;-64
2022/12/31 02:57:45;;;;;;;13.60;2.60;;;11.60;99.90;;;;;;4996948;28;20090;-63
2022/12/31 03:03:01;;;;;;;9.68;2.65;;;11.60;99.90;;;;;;5036906;28;20144;-64
2022/12/31 03:05:29;;;;;;;13.40;2.85;;;11.60;99.90;;;;;;5002730;28;20639;-65
2022/12/31 03:07:55;;;;;;;10.77;2.97;;;11.40;99.90;;;;;;5036857;28;20041;-64
2022/12/31 03:10:21;;;;;;;9.10;2.60;;;11.40;99.90;;;;;;5018673;28;20047;-65
2022/12/31 03:12:47;;;;;;;11.43;3.30;;;11.60;99.90;;;;;;5017596;28;21187;-64
2022/12/31 03:15:22;;;;;;;13.48;2.88;;;11.60;99.90;;;;;;5018656;28;20045;-64
2022/12/31 03:18:05;;;;;;;11.68;2.83;;;11.60;99.90;;;;;;5019370;28;20115;-65
2022/12/31 03:23:35;;;;;;;8.02;2.33;;;11.60;99.90;;;;;;5037494;28;20083;-63
2022/12/31 03:26:02;;;;;;;6.20;2.03;;;11.50;99.90;;;;;;5002195;28;20052;-62
2022/12/31 03:28:29;;;;;;;8.35;2.20;;;11.30;99.90;;;;;;5001783;28;20032;-63
2022/12/31 03:30:59;;;;;;;7.32;2.10;;;11.50;99.90;;;;;;5018960;28;20049;-64
2022/12/31 03:33:28;;;;;;;8.73;2.53;;;11.40;99.90;;;;;;5036928;28;20087;-62
2022/12/31 03:35:54;;;;;;;9.73;2.60;;;11.40;99.90;;;;;;5019988;28;20045;-63
2022/12/31 03:38:20;;;;;;;8.70;2.20;;;11.50;99.90;;;;;;5018038;28;20127;-63
2022/12/31 03:40:51;;;;;;;8.52;1.95;;;11.40;99.90;;;;;;5018368;28;20296;-62
2022/12/31 03:43:18;;;;;;;7.95;1.83;;;11.40;99.90;;;;;;5018799;28;20036;-64
2022/12/31 03:45:48;;;;;;;6.22;1.55;;;11.40;99.90;;;;;;5017862;28;20081;-64
2022/12/31 03:48:13;;;;;;;6.07;1.48;;;11.40;99.90;;;;;;5018092;28;20032;-64
2022/12/31 03:50:39;;;;;;;8.10;1.55;;;11.30;99.90;;;;;;5018114;28;20052;-63
2022/12/31 03:53:05;;;;;;;7.70;1.50;;;11.40;99.90;;;;;;5018457;28;20041;-64
2022/12/31 03:55:31;;;;;;;5.93;0.98;;;11.50;99.90;;;;;;5018297;28;20056;-64
2022/12/31 03:57:57;;;;;;;8.00;1.40;;;11.50;99.90;;;;;;5036235;28;20051;-64
2022/12/31 04:00:23;;;;;;;5.95;1.27;;;11.40;99.90;;;;;;5037426;28;20049;-64
2022/12/31 04:02:49;;;;;;;6.80;1.00;;;11.40;99.90;;;;;;5018379;28;20389;-63
2022/12/31 04:05:16;;;;;;;5.90;1.15;;;11.40;99.90;;;;;;5036238;28;20080;-63
2022/12/31 04:07:42;;;;;;;8.05;0.90;;;11.40;99.90;;;;;;5000633;28;20099;-63
2022/12/31 04:10:11;;;;;;;6.70;0.98;;;11.40;99.90;;;;;;5036492;28;20406;-62
2022/12/31 04:12:37;;;;;;;6.95;0.95;;;11.30;99.90;;;;;;5036496;28;20477;-63
2022/12/31 04:15:04;;;;;;;7.00;0.65;;;11.20;99.90;;;;;;5017748;28;20045;-62
2022/12/31 04:17:29;;;;;;;7.32;0.88;;;11.20;99.90;;;;;;5018698;28;20643;-63
2022/12/31 04:19:55;;;;;;;5.40;0.65;;;11.10;99.90;;;;;;5017482;28;20171;-63
2022/12/31 04:22:21;;;;;;;6.53;0.70;;;11.10;99.90;;;;;;5036243;28;20076;-64
2022/12/31 04:24:46;;;;;;;4.22;0.40;;;11.10;99.90;;;;;;5035973;28;20045;-62
2022/12/31 04:27:13;;;;;;;3.53;0.40;;;11.10;99.90;;;;;;5001500;28;20497;-62
2022/12/31 04:29:39;;;;;;;5.97;0.50;;;11.10;99.90;;;;;;5036737;28;20059;-64
2022/12/31 04:32:07;;;;;;;5.32;0.52;;;11.00;99.90;;;;;;5017850;28;20041;-63
2022/12/31 04:34:33;;;;;;;6.18;0.63;;;10.90;99.90;;;;;;5018310;28;20495;-63
2022/12/31 04:36:59;;;;;;;6.85;0.80;;;11.00;99.90;;;;;;5036107;28;20487;-63
2022/12/31 04:39:25;;;;;;;3.42;0.40;;;10.90;99.90;;;;;;5035155;28;20044;-63
2022/12/31 04:41:51;;;;;;;3.72;0.50;;;11.00;99.90;;;;;;5035812;28;20032;-63
2022/12/31 04:44:18;;;;;;;3.90;0.40;;;11.10;99.90;;;;;;5035948;28;20037;-61
2022/12/31 04:46:44;;;;;;;3.50;0.30;;;11.10;99.90;;;;;;5018014;28;20033;-62
2022/12/31 04:49:10;;;;;;;4.25;0.50;;;11.00;99.90;;;;;;5035777;28;20047;-63
2022/12/31 04:51:35;;;;;;;3.30;0.40;;;11.00;99.90;;;;;;5000645;28;20108;-64
2022/12/31 04:54:02;;;;;;;4.72;0.40;;;10.80;99.90;;;;;;5036076;28;20115;-62
2022/12/31 04:56:28;;;;;;;4.75;0.50;;;10.80;99.90;;;;;;5017472;28;20076;-63
2022/12/31 04:58:54;;;;;;;5.68;0.93;;;10.80;99.90;;;;;;5036780;28;20039;-63
2022/12/31 05:01:20;;;;;;;4.10;0.68;;;10.80;99.90;;;;;;5035138;28;20049;-64
2022/12/31 05:03:46;;;;;;;3.78;0.35;;;10.90;99.90;;;;;;5034757;28;20489;-64
2022/12/31 05:06:14;;;;;;;5.03;0.68;;;10.90;99.90;;;;;;5020444;28;20045;-63
2022/12/31 05:08:40;;;;;;;5.97;0.70;;;10.70;99.90;;;;;;5021518;28;20124;-62
2022/12/31 05:11:06;;;;;;;6.03;0.60;;;10.70;99.90;;;;;;5021963;28;20156;-62
2022/12/31 05:13:32;;;;;;;4.18;0.50;;;10.80;99.90;;;;;;5020219;28;20049;-62
2022/12/31 05:15:57;;;;;;;4.28;0.60;;;10.80;99.90;;;;;;5039816;28;20431;-63
2022/12/31 05:18:23;;;;;;;5.63;1.20;;;10.70;99.90;;;;;;5039014;28;20075;-62
2022/12/31 05:20:49;;;;;;;5.07;0.75;;;10.90;99.90;;;;;;5021766;28;20593;-63
2022/12/31 05:23:16;;;;;;;4.88;0.75;;;10.70;99.90;;;;;;5039105;28;20414;-63
2022/12/31 05:25:44;;;;;;;4.75;0.68;;;10.60;99.90;;;;;;5020097;28;20056;-63
2022/12/31 05:28:10;;;;;;;5.20;0.70;;;10.90;99.90;;;;;;5039057;28;20116;-64
2022/12/31 05:30:36;;;;;;;4.10;0.60;;;10.90;99.90;;;;;;5039957;28;20083;-62
2022/12/31 05:33:02;;;;;;;5.05;0.50;;;10.60;99.90;;;;;;5038665;28;20037;-62
2022/12/31 05:35:27;;;;;;;4.40;0.60;;;10.60;99.90;;;;;;5038491;28;20246;-61
2022/12/31 05:37:53;;;;;;;4.63;0.60;;;10.60;99.90;;;;;;5039303;28;20371;-62
2022/12/31 05:40:19;;;;;;;6.05;0.70;;;10.50;99.90;;;;;;5020843;28;20052;-63
2022/12/31 05:42:44;;;;;;;3.58;0.60;;;10.60;99.90;;;;;;5020659;28;20120;-63
2022/12/31 05:45:14;;;;;;;4.60;0.90;;;10.40;99.90;;;;;;5020455;28;20040;-63
2022/12/31 05:47:40;;;;;;;3.47;0.50;;;10.50;99.90;;;;;;5020230;28;20083;-63
2022/12/31 05:50:11;;;;;;;5.47;0.50;;;10.50;99.90;;;;;;5019378;28;20041;-63
2022/12/31 05:52:37;;;;;;;4.95;0.98;;;10.50;99.90;;;;;;5021556;28;20297;-63
2022/12/31 05:55:04;;;;;;;4.50;0.50;;;10.70;99.90;;;;;;5038283;28;20071;-63
2022/12/31 05:57:29;;;;;;;3.95;0.68;;;10.70;99.90;;;;;;5022077;28;20112;-63
2022/12/31 05:59:55;;;;;;;7.53;0.80;;;10.70;99.90;;;;;;5037694;28;20091;-64
2022/12/31 06:02:22;;;;;;;6.90;0.88;;;10.70;99.90;;;;;;5037840;28;20075;-63
2022/12/31 06:04:47;;;;;;;5.80;0.80;;;10.70;99.90;;;;;;5019714;28;20491;-63
2022/12/31 06:07:13;;;;;;;6.07;1.05;;;10.50;99.90;;;;;;4991638;28;20037;-62
2022/12/31 06:09:40;;;;;;;5.38;0.95;;;10.70;99.90;;;;;;5019621;28;20489;-63
2022/12/31 06:12:06;;;;;;;5.55;0.93;;;10.60;99.90;;;;;;4996591;28;20041;-63
2022/12/31 06:14:31;;;;;;;5.10;0.88;;;10.60;99.90;;;;;;5038647;28;20056;-62
2022/12/31 06:16:57;;;;;;;7.28;1.05;;;10.70;99.90;;;;;;5036034;28;20025;-62
2022/12/31 06:19:23;;;;;;;6.78;1.23;;;10.80;99.90;;;;;;5020083;28;20094;-63
2022/12/31 06:21:49;;;;;;;6.10;0.90;;;10.50;99.90;;;;;;5037532;28;20044;-63
2022/12/31 06:24:14;;;;;;;4.88;0.90;;;10.70;99.90;;;;;;5039424;28;20033;-62
2022/12/31 06:26:40;;;;;;;7.45;1.20;;;10.70;99.90;;;;;;5038367;28;20568;-62
2022/12/31 06:29:06;;;;;;;6.07;1.08;;;10.70;99.90;;;;;;5038340;28;20044;-65
2022/12/31 06:31:32;;;;;;;7.05;1.48;;;10.40;99.90;;;;;;5038186;28;20461;-62
2022/12/31 06:33:58;;;;;;;6.47;1.10;;;10.40;99.90;;;;;;5037721;28;20033;-62
2022/12/31 06:36:25;;;;;;;5.13;0.80;;;10.50;99.90;;;;;;5020196;28;20347;-63
2022/12/31 06:38:51;;;;;;;5.25;0.80;;;10.60;99.90;;;;;;5038108;28;20075;-62
2022/12/31 06:41:17;;;;;;;3.80;0.50;;;10.30;99.90;;;;;;5037841;28;20075;-64
2022/12/31 06:43:43;;;;;;;6.70;0.40;;;10.30;99.90;;;;;;5037139;28;20091;-63
2022/12/31 06:46:13;;;;;;;6.43;0.40;;;10.40;99.90;;;;;;5039500;28;20123;-63
2022/12/31 06:48:41;;;;;;;3.38;0.40;;;10.30;99.90;;;;;;5038737;28;20049;-63
2022/12/31 06:51:13;;;;;;;3.67;0.32;;;10.30;99.90;;;;;;5039064;28;20203;-65
2022/12/31 06:53:39;;;;;;;4.07;0.30;;;10.30;99.90;;;;;;5019935;28;20084;-64
2022/12/31 06:56:15;;;;;;;3.30;0.28;;;10.10;99.90;;;;;;5038194;28;20099;-62
2022/12/31 06:58:42;;;;;;;2.65;0.30;;;10.10;99.90;;;;;;5038631;28;20124;-63
2022/12/31 07:01:13;;;;;;;3.30;0.20;;;10.00;99.90;;;;;;5021911;28;20490;-63
2022/12/31 07:04:02;;;;;;;3.08;0.25;;;10.10;99.90;;;;;;5019850;28;20060;-63
2022/12/31 07:06:47;;;;;;;3.10;0.35;;;10.10;99.90;;;;;;5006021;28;20410;-64
2022/12/31 07:09:39;;;;;;;4.68;0.32;;;9.80;99.90;;;;;;5037585;28;20048;-62
2022/12/31 07:12:51;;;;;;;4.38;0.45;;;10.00;99.90;;;;;;5019652;28;20095;-64
2022/12/31 07:15:39;;;;;;;9.00;1.02;;;10.00;99.90;;;;;;4945915;28;20057;-62
2022/12/31 07:18:32;;;;;;;5.95;0.60;;;9.70;99.90;;;;;;5019407;28;20055;-63
2022/12/31 07:20:58;;;;;;;4.32;0.55;;;9.80;99.90;;;;;;5038236;28;20128;-63
2022/12/31 07:23:24;;;;;;;6.45;0.65;;;9.70;99.90;;;;;;5022073;28;20445;-65
2022/12/31 07:26:27;;;;;;;8.13;0.93;;;9.70;99.90;;;;;;5037415;28;20040;-63
2022/12/31 07:29:00;;;;;;;7.43;0.85;;;9.70;99.90;;;;;;4985569;28;20051;-65
2022/12/31 07:31:46;;;;;;;;;;;9.90;99.90;;;;;;5021101;28;20450;-65
2022/12/31 07:34:56;;;;;;;9.00;0.93;;;10.00;99.90;;;;;;5004051;28;19921;-65
2022/12/31 07:37:34;;;;;;;7.78;0.95;;;9.70;99.90;;;;;;4959178;28;20098;-66
2022/12/31 07:40:10;;;;;;;5.28;0.90;;;9.80;99.90;;;;;;4976369;28;20635;-65
2022/12/31 07:43:24;;;;;;;8.10;1.50;;;10.10;99.90;;;;;;5008628;28;20117;-64
2022/12/31 07:46:24;;;;;;;4.57;1.02;;;10.00;99.90;;;;;;5039310;28;20123;-64
2022/12/31 07:48:51;;;;;;;6.70;1.70;;;9.70;99.90;;;;;;5035522;28;20052;-65
2022/12/31 07:51:17;;;;;;;6.68;2.00;;;10.00;99.90;;;;;;5006728;28;20055;-65
2022/12/31 07:53:42;;;;;;;8.20;2.30;;;10.00;99.90;;;;;;5019914;28;20401;-63
2022/12/31 07:56:09;;;;;;;7.93;2.65;;;10.00;99.90;;;;;;5019954;28;20029;-64
2022/12/31 07:58:55;;;;;;;4.95;3.30;;;9.80;99.90;;;;;;5039294;28;20115;-64
2022/12/31 08:02:07;;;;;;;9.95;4.50;;;10.20;99.90;;;;;;4993904;28;20120;-64
2022/12/31 08:05:09;;;;;;;7.78;5.03;;;9.90;99.90;;;;;;5021232;28;20200;-63
2022/12/31 08:07:53;;;;;;;9.45;6.53;;;10.10;99.90;;;;;;5010425;28;20576;-64
2022/12/31 08:10:38;;;;;;;6.03;4.95;;;10.00;99.90;;;;;;5018518;28;20053;-64
2022/12/31 08:13:09;;;;;;;6.18;5.55;;;10.30;99.90;;;;;;5016479;28;20041;-64
2022/12/31 08:15:37;;;;;;;5.93;4.90;;;10.10;99.90;;;;;;5017874;28;20056;-63
2022/12/31 08:18:04;;;;;;;8.48;5.82;;;10.40;99.90;;;;;;5036418;28;20064;-66
2022/12/31 08:20:32;;;;;;;6.55;4.72;;;10.40;99.90;;;;;;5036172;28;20052;-67
2022/12/31 08:23:24;;;;;;;4.65;3.15;;;10.20;99.90;;;;;;5017636;28;20405;-66
2022/12/31 08:26:02;;;;;;;4.72;2.35;;;10.10;99.90;;;;;;5018123;28;20049;-66
2022/12/31 08:28:41;;;;;;;4.88;2.88;;;10.40;99.90;;;;;;5040066;28;20055;-64
2022/12/31 08:31:16;;;;;;;3.63;3.03;;;10.20;99.90;;;;;;5020170;28;20041;-62
2022/12/31 08:34:00;;;;;;;3.60;2.70;;;10.40;99.90;;;;;;5019775;28;20045;-64
2022/12/31 08:36:45;;;;;;;6.20;2.85;;;10.10;99.90;;;;;;5003592;28;20033;-63
2022/12/31 08:39:46;;;;;;;3.20;2.90;;;10.10;99.90;;;;;;4997098;28;20205;-64
2022/12/31 08:42:29;;;;;;;3.25;2.72;;;10.20;99.90;;;;;;5037197;28;20126;-64
2022/12/31 08:45:20;;;;;;;3.72;2.72;;;10.50;99.90;;;;;;5019749;28;20121;-64
2022/12/31 08:48:11;;;;;;;24.40;15.98;;;10.50;99.90;;;;;;4991413;28;20379;-65
2022/12/31 08:50:37;;;;;;;11.23;7.85;;;10.40;99.90;;;;;;5004937;28;20502;-64
2022/12/31 08:53:03;;;;;;;10.35;7.28;;;10.50;99.90;;;;;;5041347;28;20122;-65
2022/12/31 08:55:29;;;;;;;12.05;9.18;;;10.50;99.90;;;;;;5041079;28;20179;-64
2022/12/31 08:58:04;;;;;;;8.95;8.00;;;10.30;99.90;;;;;;5023222;28;20053;-63
2022/12/31 09:00:31;;;;;;;5.60;5.00;;;10.40;99.90;;;;;;5041079;28;20041;-64
2022/12/31 09:03:29;;;;;;;7.90;7.10;;;10.40;99.90;;;;;;5023167;28;20307;-64
2022/12/31 09:06:07;;;;;;;5.63;4.65;;;10.30;99.90;;;;;;5019969;28;20057;-64
2022/12/31 09:08:55;;;;;;;9.52;8.55;;;10.30;99.90;;;;;;5040891;28;20045;-64
2022/12/31 09:11:36;;;;;;;5.30;4.90;;;10.40;99.90;;;;;;5006084;28;20045;-63
2022/12/31 09:14:19;;;;;;;5.63;5.10;;;10.60;99.90;;;;;;5023186;28;20130;-65
2022/12/31 09:17:00;;;;;;;4.90;4.50;;;10.70;99.90;;;;;;5040990;28;20205;-66
2022/12/31 09:19:26;;;;;;;4.47;4.07;;;10.60;99.90;;;;;;5006547;28;20053;-65
2022/12/31 09:21:52;;;;;;;4.18;3.78;;;11.00;99.90;;;;;;5022589;28;20514;-65
2022/12/31 09:24:18;;;;;;;4.60;4.30;;;11.00;99.90;;;;;;5040177;28;20060;-67
2022/12/31 09:26:47;;;;;;;3.97;3.67;;;10.90;99.90;;;;;;5021552;28;20707;-65
2022/12/31 09:29:31;;;;;;;3.25;3.05;;;11.10;99.90;;;;;;5022379;28;20045;-66
2022/12/31 09:32:08;;;;;;;1.95;1.73;;;11.20;99.90;;;;;;5040104;28;20114;-67
2022/12/31 09:34:48;;;;;;;2.55;2.35;;;11.10;99.90;;;;;;5005903;28;20041;-67
2022/12/31 09:37:20;;;;;;;2.22;2.00;;;11.20;99.90;;;;;;5021621;28;20052;-67
2022/12/31 09:39:47;;;;;;;1.40;1.13;;;11.50;99.90;;;;;;5039743;28;20482;-66
2022/12/31 09:42:31;;;;;;;1.83;1.00;;;11.30;99.90;;;;;;5021646;28;20080;-66
2022/12/31 09:45:30;;;;;;;1.02;0.70;;;11.80;99.90;;;;;;5021594;28;20045;-66
2022/12/31 09:48:08;;;;;;;1.63;0.77;;;11.60;99.90;;;;;;5040033;28;20128;-67
2022/12/31 09:50:34;;;;;;;2.63;0.95;;;12.00;99.90;;;;;;5022267;28;20548;-66
2022/12/31 09:53:23;;;;;;;2.80;1.02;;;11.70;99.90;;;;;;5043557;28;20758;-64
2022/12/31 09:55:56;;;;;;;2.50;1.20;;;11.90;99.90;;;;;;5008712;28;20467;-65
2022/12/31 09:58:41;;;;;;;;;;;12.20;99.90;;;;;;5025330;28;20045;-65
2022/12/31 10:02:01;;;;;;;3.42;0.95;;;11.90;99.90;;;;;;5043450;28;20248;-65
2022/12/31 10:05:03;;;;;;;1.52;0.98;;;12.20;99.90;;;;;;4964614;28;20146;-65
2022/12/31 10:07:44;;;;;;;2.55;0.40;;;12.20;99.90;;;;;;4980709;28;20058;-64
2022/12/31 10:10:21;;;;;;;2.25;0.70;;;12.50;99.90;;;;;;5038281;28;20060;-65
2022/12/31 10:13:19;;;;;;;2.72;0.88;;;12.60;99.90;;;;;;5025193;28;20063;-65
2022/12/31 10:16:06;;;;;;;2.35;1.10;;;12.30;99.90;;;;;;5008944;28;20723;-66
2022/12/31 10:18:59;;;;;;;3.13;0.60;;;12.60;99.90;;;;;;5043381;28;20071;-66
2022/12/31 10:21:40;;;;;;;1.13;0.35;;;12.70;99.90;;;;;;5043230;28;20041;-65
2022/12/31 10:24:24;;;;;;;1.60;0.40;;;12.50;99.90;;;;;;5042774;28;20087;-64
2022/12/31 10:27:03;;;;;;;3.67;1.33;;;12.70;99.90;;;;;;5024674;28;20128;-64
2022/12/31 10:29:53;;;;;;;2.55;0.30;;;12.90;99.90;;;;;;5042724;28;20392;-65
2022/12/31 10:32:40;;;;;;;2.78;0.60;;;12.80;99.90;;;;;;5024806;28;20045;-65
2022/12/31 10:35:42;;;;;;;3.92;0.50;;;13.20;99.90;;;;;;5043186;28;20429;-66
2022/12/31 10:38:41;;;;;;;9.13;5.97;;;13.20;99.90;;;;;;5024613;28;20104;-65
2022/12/31 10:41:44;;;;;;;1.90;0.50;;;13.10;99.90;;;;;;5024691;28;20053;-66
2022/12/31 10:44:28;;;;;;;4.87;2.57;;;13.40;99.90;;;;;;5042625;28;20041;-66
2022/12/31 10:47:19;;;;;;;4.13;0.50;;;13.50;99.90;;;;;;5042516;28;20283;-64
2022/12/31 10:50:14;;;;;;;3.80;0.43;;;13.40;99.90;;;;;;5024452;28;20131;-65
2022/12/31 10:53:18;;;;;;;4.50;0.50;;;13.30;99.90;;;;;;5024786;28;20076;-65
2022/12/31 10:55:56;;;;;;;4.68;0.75;;;13.60;99.90;;;;;;4980088;28;20050;-65
2022/12/31 10:58:56;;;;;;;4.90;0.70;;;13.50;99.90;;;;;;5035522;28;20048;-64
2022/12/31 11:01:35;;;;;;;9.15;1.20;;;13.80;99.90;;;;;;5024698;28;20056;-64
2022/12/31 11:04:13;;;;;;;8.45;0.75;;;13.90;99.90;;;;;;5041006;28;20060;-65
2022/12/31 11:07:24;;;;;;;5.57;0.73;;;14.00;99.90;;;;;;5024271;28;20373;-65
2022/12/31 11:10:05;;;;;;;7.10;1.50;;;14.20;99.90;;;;;;5023964;28;20053;-66
2022/12/31 11:12:58;;;;;;;7.82;1.30;;;14.50;99.90;;;;;;5008322;28;20086;-65
2022/12/31 11:15:37;;;;;;;11.80;2.10;;;14.40;99.90;;;;;;5023971;28;20327;-66
2022/12/31 11:18:11;;;;;;;3.83;0.40;;;14.40;99.90;;;;;;5007661;28;20055;-66
2022/12/31 11:20:54;;;;;;;6.35;0.82;;;14.30;99.90;;;;;;5007341;28;20072;-65
2022/12/31 11:23:30;;;;;;;7.20;0.80;;;14.20;99.90;;;;;;5040539;28;20052;-65
2022/12/31 11:26:23;;;;;;;6.57;0.65;;;14.10;99.90;;;;;;5041961;28;20040;-65
2022/12/31 11:29:01;;;;;;;7.15;0.45;;;14.20;99.90;;;;;;5042000;28;20160;-64
2022/12/31 11:31:32;;;;;;;5.93;0.93;;;14.20;99.90;;;;;;5041453;28;20558;-65
2022/12/31 11:34:14;;;;;;;7.32;0.95;;;14.20;99.90;;;;;;5023444;28;20135;-65
2022/12/31 11:37:27;;;;;;;10.75;0.90;;;14.20;99.90;;;;;;5042102;28;20646;-65
2022/12/31 11:40:18;;;;;;;7.53;1.02;;;14.20;17.00;;;;;;5023119;28;20107;-65
2022/12/31 11:42:54;;;;;;;8.80;1.20;;;14.20;96.30;;;;;;5041694;28;20052;-64
2022/12/31 11:45:34;;;;;;;8.73;2.30;;;14.10;99.90;;;;;;5041705;28;20056;-65
2022/12/31 11:48:11;;;;;;;10.48;1.25;;;14.10;99.90;;;;;;5007374;28;20059;-64
2022/12/31 11:51:19;;;;;;;8.07;1.10;;;14.20;99.90;;;;;;5023153;28;20041;-65
2022/12/31 11:54:02;;;;;;;8.57;0.93;;;13.90;99.90;;;;;;5023539;28;20045;-64
2022/12/31 11:56:36;;;;;;;7.93;0.70;;;13.70;99.90;;;;;;5041677;28;20045;-65
2022/12/31 11:59:09;;;;;;;8.68;1.35;;;13.60;99.90;;;;;;5023378;28;20048;-65
2022/12/31 12:01:51;;;;;;;10.35;0.80;;;13.50;99.90;;;;;;5023408;28;20398;-65
2022/12/31 12:04:17;;;;;;;7.85;1.23;;;13.70;99.90;;;;;;5041144;28;20075;-64
2022/12/31 12:06:44;;;;;;;9.15;0.75;;;13.70;99.90;;;;;;5023131;28;20041;-65
2022/12/31 12:09:19;;;;;;;6.88;0.77;;;13.80;99.90;;;;;;5024432;28;20587;-64
2022/12/31 12:11:45;;;;;;;7.78;1.10;;;13.90;99.90;;;;;;5040844;28;20099;-66
2022/12/31 12:14:32;;;;;;;7.03;1.40;;;13.80;99.90;;;;;;5040933;28;20676;-64
2022/12/31 12:16:59;;;;;;;8.27;1.45;;;13.80;99.90;;;;;;5020096;28;20039;-64
2022/12/31 12:19:28;;;;;;;6.50;1.10;;;13.80;99.90;;;;;;5021924;28;20029;-65
2022/12/31 12:21:54;;;;;;;9.82;1.63;;;13.80;99.90;;;;;;5022684;28;20198;-65
2022/12/31 12:24:22;;;;;;;8.27;1.95;;;13.90;99.90;;;;;;5039121;28;20419;-64
2022/12/31 12:26:48;;;;;;;6.13;0.80;;;13.70;99.90;;;;;;5040099;28;20045;-63
2022/12/31 12:29:16;;;;;;;6.22;1.02;;;13.90;99.90;;;;;;5004428;28;20409;-64
2022/12/31 12:31:53;;;;;;;5.57;1.30;;;13.90;99.90;;;;;;5020722;28;20505;-64
2022/12/31 12:34:30;;;;;;;7.47;1.70;;;13.80;99.90;;;;;;5022652;28;20102;-64
2022/12/31 12:36:56;;;;;;;5.20;1.92;;;13.70;99.90;;;;;;5003648;28;20060;-64
2022/12/31 12:39:26;;;;;;;6.93;1.33;;;13.90;99.90;;;;;;5036615;28;20041;-63
2022/12/31 12:42:14;;;;;;;6.25;1.75;;;13.80;99.90;;;;;;5038337;28;20083;-62
2022/12/31 12:44:41;;;;;;;7.72;1.95;;;13.80;99.90;;;;;;5017735;28;20432;-65
2022/12/31 12:47:16;;;;;;;5.65;1.60;;;13.80;99.90;;;;;;4998689;28;20352;-64
2022/12/31 12:49:48;;;;;;;4.70;0.80;;;13.90;99.90;;;;;;5018669;28;20041;-64
2022/12/31 12:52:36;;;;;;;10.43;1.90;;;13.90;99.90;;;;;;5002408;28;20115;-64
2022/12/31 12:55:15;;;;;;;7.75;1.70;;;14.10;99.90;;;;;;5019671;28;20049;-63
2022/12/31 12:57:56;;;;;;;6.70;0.82;;;14.10;99.90;;;;;;5010059;28;20045;-63
2022/12/31 13:00:28;;;;;;;8.50;1.17;;;14.00;99.90;;;;;;5037098;28;20127;-63
2022/12/31 13:03:19;;;;;;;6.85;1.08;;;14.00;99.90;;;;;;5019205;28;20555;-64
2022/12/31 13:06:20;;;;;;;10.13;1.92;;;14.00;99.90;;;;;;4967735;28;20052;-66
2022/12/31 13:08:54;;;;;;;12.70;2.00;;;13.80;99.90;;;;;;4954768;28;20089;-66
2022/12/31 13:11:52;;;;;;;12.90;2.35;;;13.90;99.90;;;;;;4997256;28;20050;-65
2022/12/31 13:14:54;;;;;;;7.47;2.08;;;13.90;99.90;;;;;;4994508;28;20050;-65
2022/12/31 13:17:42;;;;;;;11.55;2.30;;;13.90;99.90;;;;;;4997113;28;20160;-64
2022/12/31 13:20:29;;;;;;;10.95;1.55;;;13.60;99.90;;;;;;4997973;28;20072;-64
2022/12/31 13:23:02;;;;;;;14.45;4.47;;;13.50;99.90;;;;;;4996977;28;20069;-64
2022/12/31 13:25:44;;;;;;;11.02;2.30;;;13.50;99.90;;;;;;4981106;28;20127;-64
2022/12/31 13:47:32;;;;;;;9.98;1.60;;;13.60;99.90;;;;;;5007031;28;20046;-64
2022/12/31 13:50:03;;;;;;;9.68;2.10;;;13.60;99.90;;;;;;4998521;28;20033;-65
2022/12/31 13:52:43;;;;;;;14.93;6.03;;;13.40;99.90;;;;;;5000797;28;20579;-65